Time;durP1;ratioP1;P1;durP2;ratioP2;P2;SDS_P1;SDS_P2;PMS_P1;PMS_P2;Temp;Humidity;BMP_temperature;BMP_pressure;BME280_temperature;BME280_humidity;BME280_pressure;Samples;Min_cycle;Max_cycle;Signal;HPM_P1;HPM_P2
2022/01/05 00:01:57;;;;;;;0.83;0.70;;;;;;;-145.06;24.23;60892.56;4851003;28;20037;-86
2022/01/05 00:04:36;;;;;;;;;;;;;;;-145.06;24.23;60892.56;4850805;28;20038;-85
2022/01/05 00:07:18;;;;;;;1.00;0.47;;;;;;;4.13;24.23;60892.56;4840620;28;20263;-86
2022/01/05 00:09:58;;;;;;;0.60;0.50;;;;;;;-145.06;24.23;60892.56;4853236;28;20113;-87
2022/01/05 00:12:37;;;;;;;1.05;0.63;;;;;;;4.19;24.23;60892.56;4844418;28;20033;-86
2022/01/05 00:15:16;;;;;;;0.73;0.55;;;;;;;-145.06;24.23;60892.56;4841779;28;20472;-86
2022/01/05 00:17:55;;;;;;;1.33;0.50;;;;;;;4.02;24.23;60892.56;4838233;28;20641;-87
2022/01/05 00:20:34;;;;;;;1.05;0.55;;;;;;;4.03;24.23;60892.56;4829354;28;20033;-85
2022/01/05 00:23:13;;;;;;;0.50;0.50;;;;;;;4.04;24.23;60892.56;4838120;28;20538;-87
2022/01/05 00:25:52;;;;;;;0.60;0.60;;;;;;;-145.06;24.23;60892.56;4838528;28;20487;-86
2022/01/05 00:28:32;;;;;;;0.50;0.50;;;;;;;4.01;24.23;60892.56;4820177;28;20120;-86
2022/01/05 00:31:11;;;;;;;0.93;0.57;;;;;;;4.01;24.23;60892.56;4832488;28;20029;-85
2022/01/05 00:33:50;;;;;;;0.87;0.70;;;;;;;3.98;24.23;60892.56;4835565;28;20034;-86
2022/01/05 00:36:29;;;;;;;1.15;0.70;;;;;;;3.93;24.23;60892.56;4829780;28;20033;-86
2022/01/05 00:39:08;;;;;;;0.77;0.50;;;;;;;-145.06;24.23;60892.56;4845589;28;20030;-86
2022/01/05 00:41:47;;;;;;;1.10;0.60;;;;;;;-145.06;24.23;60892.56;4835317;28;20483;-86
2022/01/05 00:44:26;;;;;;;0.80;0.63;;;;;;;-145.06;24.23;60892.56;4833692;28;20114;-86
2022/01/05 00:47:05;;;;;;;1.40;0.68;;;;;;;4.19;24.23;60892.56;4830881;28;20116;-86
2022/01/05 00:49:44;;;;;;;0.77;0.67;;;;;;;-145.06;24.23;60892.56;4847602;28;20483;-87
2022/01/05 00:52:23;;;;;;;0.80;0.70;;;;;;;-145.06;24.23;60892.56;4829061;28;20277;-87
2022/01/05 00:55:03;;;;;;;0.98;0.75;;;;;;;-145.06;24.23;60892.56;4836510;28;20269;-86
2022/01/05 00:57:42;;;;;;;;;;;;;;;-145.06;24.23;60892.56;4844374;28;20113;-86
2022/01/05 01:00:21;;;;;;;0.65;0.63;;;;;;;-145.06;24.23;60892.56;4834154;28;19909;-87
2022/01/05 01:03:00;;;;;;;1.38;0.70;;;;;;;4.19;24.23;60892.56;4835938;28;20060;-86
2022/01/05 01:05:39;;;;;;;1.05;0.88;;;;;;;4.19;24.23;60892.56;4827380;28;20049;-86
2022/01/05 01:08:18;;;;;;;1.73;1.00;;;;;;;-145.06;24.23;60892.56;4840743;28;20069;-86
2022/01/05 01:10:57;;;;;;;0.80;0.80;;;;;;;4.19;24.23;60892.56;4823857;28;20031;-86
2022/01/05 01:13:36;;;;;;;1.40;0.88;;;;;;;4.19;24.23;60892.56;4834968;28;20033;-85
2022/01/05 01:16:15;;;;;;;2.23;1.30;;;;;;;4.19;24.23;60892.56;4859714;28;20054;-87
2022/01/05 01:18:54;;;;;;;1.50;1.00;;;;;;;-145.06;24.23;60892.56;4850304;28;20029;-86
2022/01/05 01:21:33;;;;;;;3.03;1.30;;;;;;;-145.06;24.23;60892.56;4849819;28;20033;-86
2022/01/05 01:24:12;;;;;;;1.48;0.95;;;;;;;-145.06;24.23;60892.56;4830134;28;20029;-85
2022/01/05 01:26:51;;;;;;;1.83;1.20;;;;;;;3.70;24.23;60892.56;4833659;28;20041;-86
2022/01/05 01:29:30;;;;;;;5.28;1.77;;;;;;;3.68;24.23;60892.56;4836302;28;20045;-87
2022/01/05 01:32:09;;;;;;;2.35;1.40;;;;;;;5.49;24.23;60892.56;4830716;28;20066;-86
2022/01/05 01:34:48;;;;;;;1.97;1.20;;;;;;;-145.06;24.23;60892.56;4833567;28;20018;-87
2022/01/05 01:37:27;;;;;;;2.75;1.80;;;;;;;4.19;24.23;60892.56;4826754;28;20038;-86
2022/01/05 01:40:07;;;;;;;2.63;1.40;;;;;;;-145.06;24.23;60892.56;4832942;28;20042;-85
2022/01/05 01:42:47;;;;;;;2.75;1.20;;;;;;;10.68;24.23;60892.56;4830749;28;22193;-86
2022/01/05 01:45:27;;;;;;;4.00;1.65;;;;;;;10.68;24.23;60892.56;4838448;28;20042;-86
2022/01/05 01:48:06;;;;;;;2.33;1.40;;;;;;;4.19;24.23;60892.56;4837927;28;20726;-86
2022/01/05 01:50:45;;;;;;;1.97;1.13;;;;;;;-145.06;24.23;60892.56;4829614;28;20551;-85
2022/01/05 01:53:24;;;;;;;2.42;1.60;;;;;;;-145.06;24.23;60892.56;4833396;28;20344;-86
2022/01/05 01:56:06;;;;;;;1.83;1.67;;;;;;;-145.06;24.23;60892.56;4828095;28;20050;-87
2022/01/05 01:58:48;;;;;;;3.17;1.80;;;;;;;-145.06;24.23;60892.56;4827185;28;20037;-87
2022/01/05 02:01:27;;;;;;;4.18;1.45;;;;;;;-145.06;24.23;60892.56;4830613;28;20034;-86
2022/01/05 02:04:06;;;;;;;3.20;1.45;;;;;;;-145.06;24.23;60892.56;4847513;28;20420;-86
2022/01/05 02:06:44;;;;;;;2.87;1.43;;;;;;;-145.06;24.23;60892.56;4833753;28;20022;-87
2022/01/05 02:09:23;;;;;;;4.70;1.88;;;;;;;-145.06;24.23;60892.56;4833527;28;20282;-86
2022/01/05 02:12:05;;;;;;;3.63;1.53;;;;;;;-145.06;24.23;60892.56;4828631;28;20069;-87
2022/01/05 02:14:44;;;;;;;4.47;1.65;;;;;;;-145.06;24.23;60892.56;4833289;28;20616;-86
2022/01/05 02:17:29;;;;;;;5.60;1.97;;;;;;;-145.06;24.23;60892.56;4829684;28;20038;-86
2022/01/05 02:20:17;;;;;;;4.22;1.52;;;;;;;-145.06;24.23;60892.56;4832924;28;20033;-87
2022/01/05 02:22:56;;;;;;;4.57;1.70;;;;;;;-145.06;24.23;60892.56;4833502;28;20033;-87
2022/01/05 02:25:35;;;;;;;3.70;1.85;;;;;;;-145.06;24.23;60892.56;4833891;28;20372;-86
2022/01/05 02:28:14;;;;;;;3.00;2.00;;;;;;;-145.06;24.23;60892.56;4831259;28;20116;-85
2022/01/05 02:30:53;;;;;;;3.83;2.17;;;;;;;-145.06;24.23;60892.56;4842802;28;20300;-85
2022/01/05 02:33:32;;;;;;;3.33;1.90;;;;;;;-145.06;24.23;60892.56;4834496;28;20354;-87
2022/01/05 02:36:15;;;;;;;5.15;2.17;;;;;;;-145.06;24.23;60892.56;4831529;28;20026;-86
2022/01/05 02:38:55;;;;;;;5.25;2.40;;;;;;;3.46;24.23;60892.56;4837898;28;20038;-86
2022/01/05 02:41:35;;;;;;;4.38;2.10;;;;;;;-145.06;24.23;60892.56;4837120;28;20634;-87
2022/01/05 02:44:13;;;;;;;3.70;2.30;;;;;;;-145.06;24.23;60892.56;4834314;28;20026;-87
2022/01/05 02:46:52;;;;;;;5.28;2.35;;;;;;;-145.06;24.23;60892.56;4833116;28;20484;-86
2022/01/05 02:49:31;;;;;;;4.93;2.15;;;;;;;-145.06;24.23;60892.56;4839198;28;20530;-86
2022/01/05 02:52:11;;;;;;;5.00;2.55;;;;;;;-145.06;24.23;60892.56;4847323;28;20535;-86
2022/01/05 02:54:50;;;;;;;5.27;2.23;;;;;;;-145.06;24.23;60892.56;4837542;28;20034;-87
2022/01/05 02:57:30;;;;;;;5.22;2.08;;;;;;;-145.06;24.23;60892.56;4827256;28;20038;-86
2022/01/05 03:00:10;;;;;;;;;;;;;;;-145.06;24.23;60892.56;4841509;28;20033;-85
2022/01/05 03:02:49;;;;;;;5.00;2.25;;;;;;;-145.06;24.23;60892.56;4835488;28;20000;-86
2022/01/05 03:05:28;;;;;;;4.95;2.00;;;;;;;-145.06;24.23;60892.56;4828664;28;20022;-86
2022/01/05 03:08:07;;;;;;;3.63;2.03;;;;;;;-145.06;24.23;60892.56;4842819;28;20117;-86
2022/01/05 03:10:47;;;;;;;4.57;2.13;;;;;;;-145.06;24.23;60892.56;4825622;28;20113;-86
2022/01/05 03:13:26;;;;;;;3.97;2.00;;;;;;;-145.06;24.23;60892.56;4825468;28;20038;-86
2022/01/05 03:16:05;;;;;;;4.68;2.38;;;;;;;-145.06;24.23;60892.56;4834727;28;20037;-87
2022/01/05 03:18:44;;;;;;;2.50;1.77;;;;;;;-145.06;24.23;60892.56;4831458;28;20038;-86
2022/01/05 03:21:23;;;;;;;2.88;1.92;;;;;;;-145.06;24.23;60892.56;4831913;28;20053;-87
2022/01/05 03:24:02;;;;;;;4.30;2.07;;;;;;;-145.06;24.23;60892.56;4835593;28;20046;-86
2022/01/05 03:26:41;;;;;;;6.35;1.70;;;;;;;-145.06;24.23;60892.56;4836151;28;20029;-86
2022/01/05 03:29:20;;;;;;;3.90;1.58;;;;;;;-145.06;24.23;60892.56;4823531;28;20069;-85
2022/01/05 03:31:59;;;;;;;5.90;2.10;;;;;;;-145.06;24.23;60892.56;4824697;28;20757;-87
2022/01/05 03:34:39;;;;;;;4.37;2.00;;;;;;;-145.06;24.23;60892.56;4829494;28;20042;-85
2022/01/05 03:37:18;;;;;;;5.90;1.92;;;;;;;-145.06;24.23;60892.56;4843889;28;20038;-86
2022/01/05 03:39:57;;;;;;;4.97;1.63;;;;;;;-145.06;24.23;60892.56;4831434;28;20029;-87
2022/01/05 03:42:36;;;;;;;3.70;1.80;;;;;;;-145.06;24.23;60892.56;4835559;28;20030;-86
2022/01/05 03:45:15;;;;;;;2.33;1.57;;;;;;;-145.06;24.23;60892.56;4838053;28;20033;-87
2022/01/05 03:47:54;;;;;;;2.20;1.40;;;;;;;-145.06;24.23;60892.56;4830839;28;20295;-87
2022/01/05 03:50:34;;;;;;;6.43;1.73;;;;;;;-145.06;24.23;60892.56;4825447;28;20491;-87
2022/01/05 03:53:13;;;;;;;6.30;2.05;;;;;;;-145.06;24.23;60892.56;4820293;28;20273;-86
2022/01/05 03:55:52;;;;;;;;;;;;;;;-145.06;24.23;60892.56;4830688;28;20042;-86
2022/01/05 03:58:31;;;;;;;3.80;1.80;;;;;;;-145.06;24.23;60892.56;4822956;28;19913;-87
2022/01/05 04:01:11;;;;;;;5.68;1.88;;;;;;;-145.06;24.23;60892.56;4835414;28;20034;-86
2022/01/05 04:03:50;;;;;;;5.15;1.90;;;;;;;-145.06;24.23;60892.56;4850206;28;20034;-85
2022/01/05 04:06:28;;;;;;;5.97;2.22;;;;;;;2.86;24.23;60892.56;4826986;28;20109;-86
2022/01/05 04:09:07;;;;;;;3.83;1.60;;;;;;;2.85;24.23;60892.56;4829356;28;20480;-86
2022/01/05 04:11:46;;;;;;;7.13;1.87;;;;;;;-145.06;24.23;60892.56;4852405;28;20029;-85
2022/01/05 04:14:25;;;;;;;2.97;1.38;;;;;;;-145.06;24.23;60892.56;4823181;28;20266;-87
2022/01/05 04:17:04;;;;;;;4.50;1.50;;;;;;;-145.06;24.23;60892.56;4835941;28;20061;-87
2022/01/05 04:19:43;;;;;;;5.55;1.95;;;;;;;-145.06;24.23;60892.56;4831943;28;20042;-86
2022/01/05 04:22:22;;;;;;;6.22;1.75;;;;;;;-145.06;24.23;60892.56;4829854;28;20377;-87
2022/01/05 04:25:03;;;;;;;3.93;1.80;;;;;;;2.81;24.23;60892.56;4833528;28;20026;-87
2022/01/05 04:27:42;;;;;;;3.75;1.42;;;;;;;-145.06;24.23;60892.56;4834217;28;20269;-87
2022/01/05 04:30:22;;;;;;;4.97;1.95;;;;;;;-145.06;24.23;60892.56;4828505;28;20030;-86
2022/01/05 04:33:00;;;;;;;6.47;2.00;;;;;;;-145.06;24.23;60892.56;4830461;28;20109;-87
2022/01/05 04:35:39;;;;;;;8.52;2.20;;;;;;;-145.06;24.23;60892.56;4839261;28;20029;-85
2022/01/05 04:38:19;;;;;;;5.60;1.80;;;;;;;-145.06;24.23;60892.56;4835994;28;20070;-88
2022/01/05 04:40:57;;;;;;;8.23;2.28;;;;;;;-145.06;24.23;60892.56;4837488;28;20030;-87
2022/01/05 04:43:36;;;;;;;5.38;2.08;;;;;;;-145.06;24.23;60892.56;4834041;28;20045;-87
2022/01/05 04:46:15;;;;;;;3.85;1.73;;;;;;;-145.06;24.23;60892.56;4825480;28;20034;-86
2022/01/05 04:48:55;;;;;;;5.38;1.60;;;;;;;-145.06;24.23;60892.56;4835166;28;20034;-87
2022/01/05 04:51:33;;;;;;;5.93;1.80;;;;;;;-145.06;24.23;60892.56;4835914;28;20057;-86
2022/01/05 04:54:13;;;;;;;10.33;2.37;;;;;;;2.72;24.23;60892.56;4839113;28;20037;-86
2022/01/05 04:56:52;;;;;;;4.18;1.90;;;;;;;10.68;24.23;60892.56;4837178;28;20037;-87
2022/01/05 04:59:32;;;;;;;4.57;1.40;;;;;;;187.52;24.23;60892.56;4833843;28;20385;-87
2022/01/05 05:02:12;;;;;;;5.47;2.03;;;;;;;-145.06;24.23;60892.56;4837907;28;20112;-86
2022/01/05 05:04:51;;;;;;;;;;;;;;;-145.06;24.23;60892.56;4853057;28;20030;-87
2022/01/05 05:07:30;;;;;;;5.35;1.60;;;;;;;-145.06;24.23;60892.56;4835422;28;19917;-87
2022/01/05 05:10:09;;;;;;;7.07;2.00;;;;;;;-145.06;24.23;60892.56;4834459;28;20120;-87
2022/01/05 05:12:48;;;;;;;7.10;1.93;;;;;;;-145.06;24.23;60892.56;4842611;28;20045;-86
2022/01/05 05:15:27;;;;;;;6.07;2.20;;;;;;;-145.06;24.23;60892.56;4826332;28;20616;-86
2022/01/05 05:18:06;;;;;;;7.85;1.95;;;;;;;-145.06;24.23;60892.56;4828673;28;20636;-86
2022/01/05 05:20:45;;;;;;;4.03;1.50;;;;;;;2.89;24.23;60892.56;4836407;28;20173;-87
2022/01/05 05:23:25;;;;;;;4.88;1.50;;;;;;;5.49;24.23;60892.56;4834191;28;20029;-87
2022/01/05 05:26:04;;;;;;;5.73;1.70;;;;;;;-145.06;24.23;60892.56;4834402;28;20030;-86
2022/01/05 05:28:42;;;;;;;6.57;1.80;;;;;;;187.52;24.23;60892.56;4835260;28;20041;-86
2022/01/05 05:31:21;;;;;;;6.45;2.08;;;;;;;-145.06;24.23;60892.56;4837479;28;20037;-86
2022/01/05 05:34:01;;;;;;;6.90;2.22;;;;;;;-145.06;24.23;60892.56;4832461;28;20581;-87
2022/01/05 05:36:40;;;;;;;6.78;2.05;;;;;;;-145.06;24.23;60892.56;4835568;28;20026;-87
2022/01/05 05:39:19;;;;;;;4.80;1.80;;;;;;;-145.06;24.23;60892.56;4834945;28;20042;-88
2022/01/05 05:41:58;;;;;;;5.35;1.75;;;;;;;-145.06;24.23;60892.56;4828827;28;20603;-86
2022/01/05 05:44:37;;;;;;;6.22;1.75;;;;;;;-145.06;24.23;60892.56;4822493;28;20437;-87
2022/01/05 05:47:16;;;;;;;6.17;1.37;;;;;;;-145.06;24.23;60892.56;4861708;28;20025;-86
2022/01/05 05:49:55;;;;;;;4.78;1.63;;;;;;;-145.06;24.23;60892.56;4829059;28;20303;-87
2022/01/05 05:52:34;;;;;;;5.28;1.73;;;;;;;-145.06;24.23;60892.56;4834860;28;20033;-86
2022/01/05 05:55:13;;;;;;;4.20;1.15;;;;;;;-145.06;24.23;60892.56;4836036;28;20104;-86
2022/01/05 05:57:52;;;;;;;3.47;1.35;;;;;;;-145.06;24.23;60892.56;4832335;28;20475;-88
2022/01/05 06:00:31;;;;;;;5.87;1.87;;;;;;;-145.06;24.23;60892.56;4834239;28;20109;-88
2022/01/05 06:03:09;;;;;;;5.73;2.00;;;;;;;-145.06;24.23;60892.56;4841025;28;20037;-86
2022/01/05 06:05:48;;;;;;;4.53;1.63;;;;;;;-145.06;24.23;60892.56;4834107;28;20087;-88
2022/01/05 06:08:28;;;;;;;5.07;1.80;;;;;;;-145.06;24.23;60892.56;4826068;28;20070;-87
2022/01/05 06:11:07;;;;;;;4.72;1.67;;;;;;;10.68;24.23;60892.56;4835819;28;20436;-86
2022/01/05 06:13:46;;;;;;;4.05;1.73;;;;;;;-145.06;24.23;60892.56;4836990;28;20132;-87
2022/01/05 06:16:26;;;;;;;3.70;1.70;;;;;;;-145.06;24.23;60892.56;4832354;28;20037;-86
2022/01/05 06:19:04;;;;;;;10.18;1.98;;;;;;;-145.06;24.23;60892.56;4835235;28;20029;-86
2022/01/05 06:21:47;;;;;;;6.10;1.60;;;;;;;-145.06;24.23;60892.56;4828798;28;20030;-87
2022/01/05 06:24:26;;;;;;;5.18;1.58;;;;;;;-145.06;24.23;60892.56;4825897;28;20038;-87
2022/01/05 06:27:08;;;;;;;6.90;2.20;;;;;;;-145.06;24.23;60892.56;4831052;28;20042;-87
2022/01/05 06:29:47;;;;;;;5.28;1.80;;;;;;;-145.06;24.23;60892.56;4817395;28;20034;-87
2022/01/05 06:32:27;;;;;;;6.90;2.05;;;;;;;-145.06;24.23;60892.56;4834420;28;20034;-87
2022/01/05 06:35:06;;;;;;;7.90;2.05;;;;;;;-145.06;24.23;60892.56;4833928;28;20487;-86
2022/01/05 06:37:45;;;;;;;8.00;2.20;;;;;;;-145.06;24.23;60892.56;4835358;28;20490;-86
2022/01/05 06:40:24;;;;;;;6.90;1.73;;;;;;;-145.06;24.23;60892.56;4829029;28;20030;-87
2022/01/05 06:43:03;;;;;;;4.82;1.73;;;;;;;-145.06;24.23;60892.56;4834993;28;20038;-86
2022/01/05 06:45:42;;;;;;;10.65;3.13;;;;;;;-145.06;24.23;60892.56;4836937;28;20041;-87
2022/01/05 06:48:21;;;;;;;12.80;3.20;;;;;;;-145.06;24.23;60892.56;4832742;28;20042;-86
2022/01/05 06:51:00;;;;;;;8.32;2.92;;;;;;;-145.06;24.23;60892.56;4837238;28;20277;-87
2022/01/05 06:53:39;;;;;;;10.93;2.63;;;;;;;-145.06;24.23;60892.56;4825883;28;20384;-86
2022/01/05 06:56:18;;;;;;;10.37;2.83;;;;;;;-145.06;24.23;60892.56;4831789;28;20265;-87
2022/01/05 06:58:57;;;;;;;9.52;2.58;;;;;;;-145.06;24.23;60892.56;4827498;28;20065;-88
2022/01/05 07:01:37;;;;;;;5.47;2.38;;;;;;;-145.06;24.23;60892.56;4843256;28;20121;-86
2022/01/05 07:04:16;;;;;;;6.17;2.20;;;;;;;10.68;24.23;60892.56;4830259;28;20033;-87
2022/01/05 07:06:55;;;;;;;8.15;2.78;;;;;;;-145.06;24.23;60892.56;4826525;28;20285;-87
2022/01/05 07:09:34;;;;;;;6.18;2.65;;;;;;;-145.06;24.23;60892.56;4822985;28;20038;-87
2022/01/05 07:12:13;;;;;;;11.35;3.10;;;;;;;-145.06;24.23;60892.56;4832226;28;20061;-86
2022/01/05 07:14:52;;;;;;;11.97;2.77;;;;;;;-145.06;24.23;60892.56;4826454;28;20492;-88
2022/01/05 07:17:31;;;;;;;6.63;2.67;;;;;;;-145.06;24.23;60892.56;4839887;28;20269;-87
2022/01/05 07:20:10;;;;;;;8.83;3.20;;;;;;;-145.06;24.23;60892.56;4832217;28;20078;-87
2022/01/05 07:22:49;;;;;;;7.70;2.53;;;;;;;-145.06;24.23;60892.56;4825272;28;20395;-87
2022/01/05 07:25:28;;;;;;;9.10;3.05;;;;;;;2.56;24.23;60892.56;4833369;28;20061;-85
2022/01/05 07:28:06;;;;;;;15.30;3.28;;;;;;;-145.06;24.23;60892.56;4833612;28;20034;-87
2022/01/05 07:30:45;;;;;;;10.13;3.13;;;;;;;21.08;24.23;60892.56;4834821;28;20037;-86
2022/01/05 07:33:26;;;;;;;5.70;2.65;;;;;;;10.68;24.23;60892.56;4846642;28;20045;-86
2022/01/05 07:36:05;;;;;;;9.73;3.00;;;;;;;2.64;24.23;60892.56;4837420;28;20467;-85
2022/01/05 07:38:45;;;;;;;8.90;2.60;;;;;;;-145.06;24.23;60892.56;4831178;28;20034;-87
2022/01/05 07:41:23;;;;;;;5.63;2.67;;;;;;;-145.06;24.23;60892.56;4837221;28;20117;-87
2022/01/05 07:44:04;;;;;;;7.82;2.65;;;;;;;2.74;24.23;60892.56;4837479;28;20046;-86
2022/01/05 07:46:43;;;;;;;8.88;2.60;;;;;;;-145.06;24.23;60892.56;4839642;28;20030;-87
2022/01/05 07:49:22;;;;;;;13.50;2.92;;;;;;;-145.06;24.23;60892.56;4833139;28;20046;-87
2022/01/05 07:52:01;;;;;;;5.40;2.57;;;;;;;-145.06;24.23;60892.56;4851591;28;20405;-87
2022/01/05 07:54:40;;;;;;;12.73;2.90;;;;;;;2.80;24.23;60892.56;4833595;28;20038;-86
2022/01/05 07:57:19;;;;;;;9.57;2.80;;;;;;;5.49;24.23;60892.56;4843710;28;20636;-87
2022/01/05 07:59:58;;;;;;;6.10;2.53;;;;;;;2.85;24.23;60892.56;4827198;28;20357;-86
2022/01/05 08:02:37;;;;;;;5.70;2.53;;;;;;;-145.06;24.23;60892.56;4833838;28;20038;-86
2022/01/05 08:05:16;;;;;;;7.82;2.80;;;;;;;-145.06;24.23;60892.56;4830571;28;20105;-86
2022/01/05 08:07:55;;;;;;;5.37;2.13;;;;;;;-145.06;24.23;60892.56;4831535;28;20105;-87
2022/01/05 08:10:34;;;;;;;7.20;2.63;;;;;;;-145.06;24.23;60892.56;4837397;28;20038;-88
2022/01/05 08:13:13;;;;;;;6.72;2.38;;;;;;;-145.06;24.23;60892.56;4828388;28;20030;-86
2022/01/05 08:15:53;;;;;;;8.95;2.35;;;;;;;-145.06;24.23;60892.56;4833703;28;20057;-87
2022/01/05 08:18:32;;;;;;;9.40;2.50;;;;;;;-145.06;24.23;60892.56;4835027;28;20356;-86
2022/01/05 08:21:12;;;;;;;6.60;2.70;;;;;;;-145.06;24.23;60892.56;4832407;28;20361;-86
2022/01/05 08:23:50;;;;;;;9.43;3.00;;;;;;;-145.06;24.23;60892.56;4833760;28;20030;-87
2022/01/05 08:26:29;;;;;;;6.85;2.55;;;;;;;-145.06;24.23;60892.56;4834550;28;20042;-87
2022/01/05 08:29:08;;;;;;;6.28;2.67;;;;;;;-145.06;24.23;60892.56;4836938;28;20478;-88
2022/01/05 08:31:47;;;;;;;5.50;2.13;;;;;;;-145.06;24.23;60892.56;4842691;28;20380;-87
2022/01/05 08:34:26;;;;;;;5.70;2.38;;;;;;;-145.06;24.23;60892.56;4831560;28;20041;-86
2022/01/05 08:37:05;;;;;;;8.73;2.60;;;;;;;-145.06;24.23;60892.56;4841384;28;20638;-86
2022/01/05 08:39:48;;;;;;;7.70;2.67;;;;;;;-145.06;24.23;60892.56;4818048;28;20034;-86
2022/01/05 08:42:27;;;;;;;6.40;2.38;;;;;;;-145.06;24.23;60892.56;4843599;28;20046;-86
2022/01/05 08:45:07;;;;;;;5.07;1.58;;;;;;;-145.06;24.23;60892.56;4833506;28;20042;-86
2022/01/05 08:47:49;;;;;;;4.65;1.90;;;;;;;-145.06;24.23;60892.56;4833054;28;20030;-86
2022/01/05 08:50:31;;;;;;;3.65;1.90;;;;;;;-145.06;24.23;60892.56;4831378;28;20152;-86
2022/01/05 08:53:10;;;;;;;8.13;2.20;;;;;;;-145.06;24.23;60892.56;4833298;28;20033;-86
2022/01/05 08:55:50;;;;;;;8.75;2.63;;;;;;;-145.06;24.23;60892.56;4836446;28;20053;-86
2022/01/05 08:58:29;;;;;;;;;;;;;;;-145.06;24.23;60892.56;4832446;28;20058;-85
2022/01/05 09:01:10;;;;;;;9.00;2.10;;;;;;;-145.06;24.23;60892.56;4836870;28;19917;-86
2022/01/05 09:03:52;;;;;;;5.95;2.33;;;;;;;-145.06;24.23;60892.56;4833258;28;20053;-87
2022/01/05 09:06:31;;;;;;;5.10;1.83;;;;;;;-145.06;24.23;60892.56;4834901;28;20030;-86
2022/01/05 09:09:09;;;;;;;6.57;2.00;;;;;;;-145.06;24.23;60892.56;4825262;28;20034;-85
2022/01/05 09:11:48;;;;;;;6.57;2.30;;;;;;;-145.06;24.23;60892.56;4835309;28;20037;-86
2022/01/05 09:14:27;;;;;;;7.22;2.47;;;;;;;-145.06;24.23;60892.56;4829037;28;20034;-85
2022/01/05 09:17:07;;;;;;;7.50;2.77;;;;;;;-145.06;24.23;60892.56;4828758;28;20465;-87
2022/01/05 09:19:46;;;;;;;;;;;;;;;-145.06;24.23;60892.56;4832324;28;20034;-86
2022/01/05 09:22:25;;;;;;;6.40;2.33;;;;;;;-145.06;24.23;60892.56;4832334;28;19917;-86
2022/01/05 09:25:12;;;;;;;8.68;2.55;;;;;;;-145.06;24.23;60892.56;4830399;28;20038;-87
2022/01/05 09:27:52;;;;;;;4.05;2.00;;;;;;;-145.06;24.23;60892.56;4834236;28;20030;-86
2022/01/05 09:30:31;;;;;;;9.25;2.70;;;;;;;-145.06;24.23;60892.56;4830730;28;20116;-86
2022/01/05 09:33:10;;;;;;;5.15;2.08;;;;;;;-145.06;24.23;60892.56;4828227;28;20488;-86
2022/01/05 09:35:52;;;;;;;6.97;2.17;;;;;;;3.61;24.23;60892.56;4833138;28;20037;-85
2022/01/05 09:41:56;;;;;;;7.25;2.10;;;;;;;-145.06;24.23;60892.56;4828279;28;20025;-87
2022/01/05 09:44:34;;;;;;;5.07;2.20;;;;;;;-145.06;24.23;60892.56;4831858;28;20029;-85
2022/01/05 09:47:14;;;;;;;6.65;2.22;;;;;;;-145.06;24.23;60892.56;4834335;28;20436;-86
2022/01/05 09:49:59;;;;;;;8.83;2.57;;;;;;;-145.06;24.23;60892.56;4834907;28;20041;-86
2022/01/05 09:52:39;;;;;;;8.05;2.10;;;;;;;3.82;24.23;60892.56;4847645;28;20467;-86
2022/01/05 09:55:18;;;;;;;7.13;2.15;;;;;;;10.68;24.23;60892.56;4841798;28;20065;-88
2022/01/05 09:57:58;;;;;;;8.40;2.60;;;;;;;5.49;24.23;60892.56;4834010;28;20029;-86
2022/01/05 10:00:37;;;;;;;8.77;2.42;;;;;;;-145.06;24.23;60892.56;4833522;28;20033;-86
2022/01/05 10:03:16;;;;;;;4.77;1.97;;;;;;;-145.06;24.23;60892.56;4831804;28;20121;-85
2022/01/05 10:05:55;;;;;;;4.28;1.88;;;;;;;-145.06;24.23;60892.56;4832306;28;20034;-87
2022/01/05 10:08:34;;;;;;;6.25;2.08;;;;;;;-145.06;24.23;60892.56;4830621;28;20704;-87
2022/01/05 10:11:13;;;;;;;7.45;2.20;;;;;;;-145.06;24.23;60892.56;4835869;28;20388;-86
2022/01/05 10:13:52;;;;;;;8.60;2.60;;;;;;;-145.06;24.23;60892.56;4827700;28;20499;-87
2022/01/05 10:16:31;;;;;;;7.33;2.30;;;;;;;-145.06;24.23;60892.56;4821775;28;20038;-85
2022/01/05 10:19:20;;;;;;;10.25;2.60;;;;;;;4.15;24.23;60892.56;4826717;28;20037;-87
2022/01/05 10:22:00;;;;;;;5.05;2.10;;;;;;;4.10;24.23;60892.56;4827109;28;20781;-86
2022/01/05 10:24:40;;;;;;;5.32;1.95;;;;;;;-145.06;24.23;60892.56;4826869;28;20038;-86
2022/01/05 10:27:22;;;;;;;5.90;1.70;;;;;;;-145.06;24.23;60892.56;4834755;28;20312;-87
2022/01/05 10:30:12;;;;;;;5.75;2.28;;;;;;;-145.06;24.23;60892.56;4826704;28;20037;-87
2022/01/05 10:32:54;;;;;;;6.15;2.10;;;;;;;-145.06;24.23;60892.56;4824304;28;20073;-86
2022/01/05 10:35:34;;;;;;;5.45;2.20;;;;;;;-145.06;24.23;60892.56;4827168;28;20049;-87
2022/01/05 10:38:15;;;;;;;7.35;2.50;;;;;;;5.49;24.23;60892.56;4829703;28;20376;-87
2022/01/05 10:40:55;;;;;;;9.80;2.38;;;;;;;4.51;24.23;60892.56;4820332;28;20373;-88
2022/01/05 10:43:34;;;;;;;4.22;2.28;;;;;;;-145.06;24.23;60892.56;4839996;28;20034;-87
2022/01/05 10:46:31;;;;;;;8.63;2.83;;;;;;;-145.06;24.23;60892.56;4827304;28;20034;-86
2022/01/05 10:49:27;;;;;;;8.85;2.63;;;;;;;5.49;24.23;60892.56;4827946;28;20038;-87
2022/01/05 10:52:28;;;;;;;8.63;2.67;;;;;;;-145.06;24.23;60892.56;4825878;28;20034;-87
2022/01/05 10:55:13;;;;;;;9.68;2.78;;;;;;;-145.06;24.23;60892.56;4829562;28;20129;-88
2022/01/05 10:58:04;;;;;;;7.82;2.38;;;;;;;-145.06;24.23;60892.56;4830584;28;20037;-87
2022/01/05 11:00:50;;;;;;;6.55;2.38;;;;;;;-145.06;24.23;60892.56;4841929;28;20034;-88
2022/01/05 11:03:38;;;;;;;7.90;2.45;;;;;;;-145.06;24.23;60892.56;4823534;28;20038;-88
2022/01/05 11:06:18;;;;;;;3.53;2.08;;;;;;;5.49;24.23;60892.56;4830116;28;20042;-88
2022/01/05 11:09:04;;;;;;;7.15;2.50;;;;;;;-145.06;24.23;60892.56;4837836;28;20128;-89
2022/01/05 11:11:47;;;;;;;7.72;2.85;;;;;;;-145.06;24.23;60892.56;4827710;28;20061;-87
2022/01/05 11:14:29;;;;;;;7.63;2.38;;;;;;;-145.06;24.23;60892.56;4835582;28;20029;-88
2022/01/05 11:17:08;;;;;;;4.35;2.08;;;;;;;-145.06;24.23;60892.56;4824448;28;20030;-86
2022/01/05 11:19:47;;;;;;;10.38;2.72;;;;;;;-145.06;24.23;60892.56;4825269;28;20065;-87
2022/01/05 11:22:26;;;;;;;9.52;2.67;;;;;;;5.08;24.23;60892.56;4836781;28;20467;-88
2022/01/05 11:25:08;;;;;;;12.07;2.88;;;;;;;5.49;24.23;60892.56;4828667;28;20034;-88
2022/01/05 11:27:47;;;;;;;10.15;2.38;;;;;;;10.68;24.23;60892.56;4828748;28;20053;-87
2022/01/05 11:30:26;;;;;;;6.75;2.60;;;;;;;-145.06;24.23;60892.56;4838270;28;20038;-87
2022/01/05 11:33:06;;;;;;;7.13;2.90;;;;;;;-145.06;24.23;60892.56;4826438;28;20488;-88
2022/01/05 11:35:45;;;;;;;9.43;2.53;;;;;;;-145.06;24.23;60892.56;4824369;28;20479;-87
2022/01/05 11:38:24;;;;;;;10.43;3.08;;;;;;;10.68;24.23;60892.56;4825174;28;20038;-87
2022/01/05 11:41:03;;;;;;;10.85;2.83;;;;;;;5.16;24.23;60892.56;4826931;28;20038;-87
2022/01/05 11:43:43;;;;;;;6.18;2.50;;;;;;;-145.06;24.23;60892.56;4832648;28;20045;-87
2022/01/05 11:46:29;;;;;;;7.38;2.38;;;;;;;-145.06;24.23;60892.56;4838648;28;20045;-86
2022/01/05 11:49:12;;;;;;;9.35;2.22;;;;;;;-145.06;24.23;60892.56;4826692;28;20037;-87
2022/01/05 11:51:53;;;;;;;7.10;2.70;;;;;;;-145.06;24.23;60892.56;4822814;28;20035;-87
2022/01/05 11:54:32;;;;;;;8.25;2.90;;;;;;;-145.06;24.23;60892.56;4825297;28;20037;-88
2022/01/05 11:57:13;;;;;;;13.05;3.10;;;;;;;-145.06;24.23;60892.56;4827032;28;20026;-88
2022/01/05 12:00:11;;;;;;;;;;;;;;;-145.06;24.23;60892.56;4824453;28;20033;-88
2022/01/05 12:02:50;;;;;;;5.47;2.38;;;;;;;-145.06;24.23;60892.56;4829477;28;19917;-88
2022/01/05 12:06:08;;;;;;;6.75;2.80;;;;;;;-145.06;24.23;60892.56;4822824;28;20042;-88
2022/01/05 12:08:53;;;;;;;6.03;2.22;;;;;;;-145.06;24.23;60892.56;4840179;28;20038;-88
2022/01/05 12:11:39;;;;;;;9.57;3.03;;;;;;;-145.06;24.23;60892.56;4835030;28;20038;-87
2022/01/05 12:14:21;;;;;;;6.82;2.80;;;;;;;-145.06;24.23;60892.56;4826130;28;20120;-88
2022/01/05 12:17:00;;;;;;;8.05;3.00;;;;;;;-145.06;24.23;60892.56;4829530;28;20053;-87
2022/01/05 12:19:48;;;;;;;6.82;2.55;;;;;;;-145.06;24.23;60892.56;4828787;28;20064;-86
2022/01/05 12:22:33;;;;;;;14.20;3.95;;;;;;;-145.06;24.23;60892.56;4828110;28;20034;-88
2022/01/05 12:25:13;;;;;;;8.32;3.38;;;;;;;-145.06;24.23;60892.56;4825690;28;20038;-88